LESA/SLM METAR and TAF weather

Enter ICAO airport designator
Station Type Date Time Source
LESA METAR 2020/11/28 20:00 UTC NOAA

LESA 282000Z AUTO VRB02KT CAVOK 08/05 Q1009


Station Type Date Time Source
LESA Decoded METAR 2020/11/28 20:00 UTC NOAA

Salamanca / Matacan, Spain (LESA) 40-57N 005-30W 795M
Nov 28, 2020 - 03:00 PM EST / 2020.11.28 2000 UTC
Wind: Variable at 2 MPH (2 KT):0
Visibility: greater than 7 mile(s):0
Temperature: 46 F (8 C)
Dew Point: 41 F (5 C)
Relative Humidity: 81%
Pressure (altimeter): 29.80 in. Hg (1009 hPa)
ob: LESA 282000Z AUTO VRB02KT CAVOK 08/05 Q1009
cycle: 20

Station Type Date Time Source
LESA TAF 2020/11/28 15:27 UTC NOAA

TAF LESA 281400Z 2815/2915 VRB05KT 9999 SCT030 TX16/2915Z TN04/2906Z PROB40
TEMPO 2901/2911 4000 BR BKN010 PROB30
TEMPO 2902/2911 0600 BCFG VV001

Example: see airport list